createdAt,value
2022-10-05T00:02:03.714Z,15.35
2022-10-05T00:04:53.304Z,14.18
2022-10-05T00:07:38.494Z,11.38
2022-10-05T00:10:24.136Z,13.77
2022-10-05T00:13:19.130Z,14.18
2022-10-05T00:16:10.096Z,16.75
2022-10-05T00:18:55.280Z,17.58
2022-10-05T00:21:40.157Z,16.38
2022-10-05T00:24:25.230Z,16.83
2022-10-05T00:27:17.482Z,19.17
2022-10-05T00:30:12.917Z,22.60
2022-10-05T00:32:59.877Z,18.17
2022-10-05T00:35:45.122Z,17.10
2022-10-05T00:38:30.154Z,18.17
2022-10-05T00:41:50.308Z,17.27
2022-10-05T00:45:08.409Z,15.88
2022-10-05T00:48:20.707Z,14.75
2022-10-05T00:51:26.605Z,15.27
2022-10-05T00:54:38.461Z,17.30
2022-10-05T00:57:47.155Z,14.52
2022-10-05T01:00:36.486Z,16.92
2022-10-05T01:03:47.495Z,15.05
2022-10-05T01:06:55.101Z,16.73
2022-10-05T01:10:03.986Z,13.98
2022-10-05T01:13:14.016Z,14.57
2022-10-05T01:16:23.184Z,14.85
2022-10-05T01:19:27.119Z,19.58
2022-10-05T01:22:33.878Z,17.63
2022-10-05T01:25:30.680Z,18.35
2022-10-05T01:28:23.821Z,16.60
2022-10-05T01:31:28.257Z,21.10
2022-10-05T01:34:18.962Z,14.55
2022-10-05T01:40:11.498Z,14.65
2022-10-05T01:42:57.984Z,15.20
2022-10-05T01:45:56.884Z,15.63
2022-10-05T01:49:05.506Z,16.27
2022-10-05T01:52:05.574Z,14.05
2022-10-05T01:55:12.710Z,16.35
2022-10-05T01:58:21.129Z,14.43
2022-10-05T02:01:17.936Z,14.27
2022-10-05T02:04:29.539Z,14.45
2022-10-05T02:07:30.429Z,15.60
2022-10-05T02:10:47.642Z,15.80
2022-10-05T02:13:39.991Z,14.23
2022-10-05T02:16:33.353Z,12.07
2022-10-05T02:19:37.632Z,13.45
2022-10-05T02:22:29.805Z,11.70
2022-10-05T02:25:19.684Z,13.20
2022-10-05T02:28:33.487Z,14.80
2022-10-05T02:31:27.727Z,12.65
2022-10-05T02:34:25.884Z,12.27
2022-10-05T02:37:30.259Z,13.98
2022-10-05T02:40:57.887Z,10.73
2022-10-05T02:44:20.548Z,12.98
2022-10-05T02:47:21.666Z,11.55
2022-10-05T02:50:12.322Z,13.07
2022-10-05T02:53:19.272Z,10.55
2022-10-05T02:56:46.654Z,11.05
2022-10-05T02:59:38.496Z,18.35
2022-10-05T03:02:41.100Z,10.85
2022-10-05T03:05:30.225Z,12.82
2022-10-05T03:08:24.387Z,12.88
2022-10-05T03:11:40.212Z,13.60
2022-10-05T03:14:45.904Z,15.60
2022-10-05T03:17:44.924Z,15.70
2022-10-05T03:20:32.516Z,15.52
2022-10-05T03:23:33.090Z,17.35
2022-10-05T03:26:38.976Z,14.57
2022-10-05T03:29:29.083Z,15.75
2022-10-05T03:32:25.188Z,14.65
2022-10-05T03:35:19.327Z,17.67
2022-10-05T03:38:38.796Z,17.10
2022-10-05T03:41:34.233Z,12.65
2022-10-05T03:44:34.118Z,14.65
2022-10-05T03:47:18.934Z,15.55
2022-10-05T03:50:11.450Z,16.20
2022-10-05T03:53:03.307Z,16.45
2022-10-05T03:56:29.973Z,19.73
2022-10-05T03:59:21.988Z,18.25
2022-10-05T04:02:22.287Z,15.60
2022-10-05T04:05:10.539Z,21.58
2022-10-05T04:07:56.087Z,23.88
2022-10-05T04:10:46.622Z,21.88
2022-10-05T04:13:57.515Z,26.55
2022-10-05T04:16:49.069Z,27.20
2022-10-05T04:19:41.024Z,24.70
2022-10-05T04:22:41.180Z,22.42
2022-10-05T04:25:31.658Z,21.58
2022-10-05T04:28:31.961Z,23.75
2022-10-05T04:32:00.191Z,19.48
2022-10-05T04:35:04.616Z,21.67
2022-10-05T04:38:20.196Z,20.95
2022-10-05T04:41:20.453Z,19.05
2022-10-05T04:44:57.014Z,17.50
2022-10-05T04:48:02.110Z,14.10
2022-10-05T04:51:08.004Z,16.90
2022-10-05T04:54:23.435Z,16.45
2022-10-05T04:57:36.767Z,12.88
2022-10-05T05:00:23.359Z,12.20
2022-10-05T05:03:37.068Z,12.13
2022-10-05T05:06:49.797Z,13.85
2022-10-05T05:09:53.610Z,16.08
2022-10-05T05:12:47.917Z,12.18
2022-10-05T05:15:57.000Z,11.73
2022-10-05T05:19:28.141Z,11.48
2022-10-05T05:22:45.618Z,12.95
2022-10-05T05:25:57.049Z,10.07
2022-10-05T05:28:54.172Z,10.85
2022-10-05T05:32:02.965Z,11.93
2022-10-05T05:35:30.678Z,12.02
2022-10-05T05:38:31.202Z,9.43
2022-10-05T05:45:50.596Z,11.38
2022-10-05T05:48:57.648Z,13.27
2022-10-05T05:56:09.039Z,11.55
2022-10-05T05:59:29.334Z,11.68
2022-10-05T06:02:25.314Z,11.32
2022-10-05T06:05:34.362Z,13.60
2022-10-05T06:08:45.226Z,13.23
2022-10-05T06:11:51.749Z,6.88
2022-10-05T06:14:52.177Z,11.93
2022-10-05T06:17:49.755Z,11.23
2022-10-05T06:20:45.104Z,11.57
2022-10-05T06:23:51.368Z,9.88
2022-10-05T06:27:23.882Z,11.57
2022-10-05T06:30:13.332Z,9.38
2022-10-05T06:33:42.362Z,9.10
2022-10-05T06:36:42.515Z,14.02
2022-10-05T06:39:58.697Z,9.02
2022-10-05T06:43:12.967Z,9.43
2022-10-05T06:46:39.126Z,8.38
2022-10-05T06:50:42.788Z,8.40
2022-10-05T06:54:07.180Z,8.50
2022-10-05T06:57:12.083Z,8.90
2022-10-05T07:00:17.721Z,9.27
2022-10-05T07:07:10.556Z,10.05
2022-10-05T07:10:23.953Z,12.40
2022-10-05T07:13:35.595Z,11.18
2022-10-05T07:16:45.324Z,11.93
2022-10-05T07:20:25.272Z,9.48
2022-10-05T07:23:19.305Z,11.48
2022-10-05T07:26:22.541Z,10.35
2022-10-05T07:29:07.449Z,9.80
2022-10-05T07:32:23.931Z,10.95
2022-10-05T07:35:52.685Z,8.65
2022-10-05T07:39:23.524Z,9.02
2022-10-05T07:42:18.454Z,9.52
2022-10-05T07:45:26.091Z,10.13
2022-10-05T07:48:23.442Z,12.73
2022-10-05T07:51:38.071Z,10.15
2022-10-05T07:54:34.905Z,8.45
2022-10-05T07:57:32.550Z,11.23
2022-10-05T08:00:21.802Z,7.65
2022-10-05T08:03:17.103Z,8.68
2022-10-05T08:06:05.093Z,7.75
2022-10-05T08:09:29.622Z,10.38
2022-10-05T08:12:49.537Z,11.00
2022-10-05T08:15:42.433Z,12.32
2022-10-05T08:19:06.130Z,9.88
2022-10-05T08:22:02.544Z,9.45
2022-10-05T08:25:01.925Z,8.05
2022-10-05T08:28:19.851Z,7.75
2022-10-05T08:31:13.166Z,5.43
2022-10-05T08:34:12.289Z,4.75
2022-10-05T08:37:31.589Z,7.15
2022-10-05T08:40:57.627Z,5.07
2022-10-05T08:43:48.618Z,5.20
2022-10-05T08:47:07.475Z,6.75
2022-10-05T08:50:18.952Z,5.95
2022-10-05T08:53:37.504Z,6.05
2022-10-05T08:56:30.827Z,3.35
2022-10-05T08:59:53.691Z,6.15
2022-10-05T09:03:21.829Z,4.32
2022-10-05T09:06:18.860Z,5.07
2022-10-05T09:09:51.787Z,4.43
2022-10-05T09:13:07.504Z,5.93
2022-10-05T09:16:29.399Z,6.55
2022-10-05T09:19:22.361Z,6.82
2022-10-05T09:22:26.312Z,5.47
2022-10-05T09:26:05.140Z,10.02
2022-10-05T09:29:20.691Z,7.70
2022-10-05T09:32:27.507Z,7.72
2022-10-05T09:35:49.824Z,5.68
2022-10-05T09:38:56.672Z,6.65
2022-10-05T09:42:37.861Z,5.22
2022-10-05T09:46:01.645Z,5.78
2022-10-05T09:49:12.950Z,5.20
2022-10-05T09:52:19.693Z,6.47
2022-10-05T09:55:45.709Z,6.03
2022-10-05T09:59:06.943Z,7.72
2022-10-05T10:02:20.667Z,5.40
2022-10-05T10:05:51.303Z,5.63
2022-10-05T10:08:44.586Z,4.40
2022-10-05T10:12:07.237Z,5.10
2022-10-05T10:15:12.930Z,3.92
2022-10-05T10:18:23.627Z,5.22
2022-10-05T10:21:35.191Z,3.88
2022-10-05T10:24:47.691Z,4.97
2022-10-05T10:27:52.444Z,5.40
2022-10-05T10:31:02.703Z,4.43
2022-10-05T10:34:03.036Z,6.68
2022-10-05T10:37:10.466Z,3.30
2022-10-05T10:40:26.347Z,3.88
2022-10-05T10:43:44.943Z,3.50
2022-10-05T10:46:40.063Z,4.05
2022-10-05T10:49:45.490Z,5.78
2022-10-05T10:52:58.461Z,6.28
2022-10-05T10:56:02.658Z,3.80
2022-10-05T10:58:56.705Z,4.93
2022-10-05T11:02:21.183Z,3.35
2022-10-05T11:05:27.660Z,5.00
2022-10-05T11:08:37.917Z,5.38
2022-10-05T11:11:35.630Z,5.25
2022-10-05T11:14:33.228Z,8.00
2022-10-05T11:17:47.235Z,4.38
2022-10-05T11:20:44.117Z,5.00
2022-10-05T11:23:56.760Z,5.18
2022-10-05T11:26:52.917Z,5.70
2022-10-05T11:30:01.287Z,5.25
2022-10-05T11:33:24.084Z,5.10
2022-10-05T11:36:57.151Z,7.47
2022-10-05T11:40:00.467Z,6.10
2022-10-05T11:43:14.960Z,8.90
2022-10-05T11:46:22.917Z,6.57
2022-10-05T11:49:29.837Z,4.38
2022-10-05T11:52:31.575Z,5.95
2022-10-05T11:55:35.829Z,7.82
2022-10-05T11:58:39.290Z,6.28
2022-10-05T12:02:14.054Z,6.25
2022-10-05T12:05:15.943Z,5.13
2022-10-05T12:08:12.965Z,6.65
2022-10-05T12:11:33.136Z,5.53
2022-10-05T12:14:34.237Z,7.35
2022-10-05T12:17:46.150Z,8.10
2022-10-05T12:20:45.874Z,6.47
2022-10-05T12:23:39.463Z,6.75
2022-10-05T12:26:29.049Z,7.07
2022-10-05T12:29:17.525Z,8.05
2022-10-05T12:32:17.877Z,7.10
2022-10-05T12:35:46.781Z,5.55
2022-10-05T12:38:57.610Z,6.57
2022-10-05T12:42:25.425Z,6.95
2022-10-05T12:45:10.068Z,6.35
2022-10-05T12:48:26.175Z,6.38
2022-10-05T12:51:31.359Z,6.90
2022-10-05T12:54:34.359Z,7.82
2022-10-05T12:57:35.540Z,8.45
2022-10-05T13:00:23.111Z,8.23
2022-10-05T13:03:24.010Z,7.85
2022-10-05T13:06:41.489Z,8.18
2022-10-05T13:09:42.739Z,7.35
2022-10-05T13:12:48.167Z,6.93
2022-10-05T13:15:40.799Z,6.72
2022-10-05T13:18:53.859Z,8.18
2022-10-05T13:22:16.388Z,6.90
2022-10-05T13:25:08.615Z,9.25
2022-10-05T13:28:30.551Z,5.90
2022-10-05T13:31:23.248Z,7.25
2022-10-05T13:34:57.976Z,6.47
2022-10-05T13:38:01.199Z,7.40
2022-10-05T13:41:02.707Z,7.15
2022-10-05T13:44:20.173Z,7.35
2022-10-05T13:47:32.531Z,7.45
2022-10-05T13:50:31.203Z,9.65
2022-10-05T13:53:19.005Z,10.57
2022-10-05T13:56:24.391Z,6.32
2022-10-05T13:59:46.352Z,6.32
2022-10-05T14:02:38.728Z,6.47
2022-10-05T14:05:24.744Z,7.28
2022-10-05T14:08:16.901Z,9.07
2022-10-05T14:11:32.055Z,6.65
2022-10-05T14:14:27.655Z,5.15
2022-10-05T14:17:33.250Z,7.28
2022-10-05T14:20:23.757Z,4.97
2022-10-05T14:23:23.866Z,5.55
2022-10-05T14:26:25.837Z,6.40
2022-10-05T14:29:17.645Z,7.00
2022-10-05T14:32:29.191Z,5.10
2022-10-05T14:35:16.924Z,6.18
2022-10-05T14:38:16.634Z,7.18
2022-10-05T14:41:07.254Z,7.90
2022-10-05T14:44:12.587Z,6.35
2022-10-05T14:47:11.423Z,6.78
2022-10-05T14:50:25.499Z,10.85
2022-10-05T14:53:18.183Z,7.97
2022-10-05T14:56:32.639Z,8.63
2022-10-05T14:59:32.051Z,10.88
2022-10-05T15:02:30.900Z,14.48
2022-10-05T15:05:24.198Z,14.70
2022-10-05T15:08:50.515Z,9.52
2022-10-05T15:11:46.068Z,8.40
2022-10-05T15:14:39.464Z,9.15
2022-10-05T15:17:40.462Z,11.38
2022-10-05T15:20:45.883Z,9.88
2022-10-05T15:23:30.846Z,8.55
2022-10-05T15:26:45.836Z,6.22
2022-10-05T15:29:41.814Z,10.15
2022-10-05T15:32:45.555Z,10.75
2022-10-05T15:36:04.086Z,11.95
2022-10-05T15:39:13.504Z,9.75
2022-10-05T15:42:47.908Z,10.70
2022-10-05T15:48:48.006Z,11.13
2022-10-05T15:51:59.711Z,15.10
2022-10-05T15:55:10.786Z,20.15
2022-10-05T15:58:07.740Z,22.75
2022-10-05T16:01:12.646Z,19.35
2022-10-05T16:04:22.488Z,16.95
2022-10-05T16:07:35.136Z,15.25
2022-10-05T16:10:23.409Z,16.58
2022-10-05T16:13:26.477Z,17.77
2022-10-05T16:16:24.333Z,15.55
2022-10-05T16:19:19.741Z,15.43
2022-10-05T16:22:21.629Z,16.88
2022-10-05T16:25:27.985Z,14.52
2022-10-05T16:28:46.965Z,15.60
2022-10-05T16:31:51.815Z,18.52
2022-10-05T16:34:39.552Z,15.13
2022-10-05T16:37:34.786Z,18.90
2022-10-05T16:40:45.867Z,13.02
2022-10-05T16:43:48.955Z,15.85
2022-10-05T16:46:33.696Z,15.35
2022-10-05T16:49:46.887Z,16.80
2022-10-05T16:52:33.402Z,13.25
2022-10-05T16:55:29.039Z,14.07
2022-10-05T16:58:25.054Z,13.65
2022-10-05T17:01:30.081Z,12.10
2022-10-05T17:04:23.878Z,16.70
2022-10-05T17:07:34.099Z,15.77
2022-10-05T17:10:56.324Z,12.25
2022-10-05T17:14:00.460Z,13.10
2022-10-05T17:17:22.808Z,15.15
2022-10-05T17:20:23.120Z,14.45
2022-10-05T17:23:30.617Z,11.90
2022-10-05T17:26:38.225Z,15.00
2022-10-05T17:29:27.693Z,15.73
2022-10-05T17:32:15.725Z,17.73
2022-10-05T17:35:00.986Z,15.00
2022-10-05T17:38:13.709Z,15.45
2022-10-05T17:41:18.452Z,13.60
2022-10-05T17:44:06.532Z,14.43
2022-10-05T17:46:53.516Z,14.70
2022-10-05T17:50:22.483Z,12.40
2022-10-05T17:54:05.145Z,12.82
2022-10-05T17:57:09.985Z,14.80
2022-10-05T17:59:57.300Z,12.07
2022-10-05T18:02:43.263Z,12.25
2022-10-05T18:05:29.692Z,11.85
2022-10-05T18:08:15.891Z,11.90
2022-10-05T18:11:11.681Z,12.77
2022-10-05T18:14:18.505Z,13.57
2022-10-05T18:17:11.599Z,15.05
2022-10-05T18:20:14.754Z,11.32
2022-10-05T18:23:02.542Z,14.90
2022-10-05T18:26:05.850Z,13.95
2022-10-05T18:32:06.996Z,17.15
2022-10-05T18:35:07.515Z,16.35
2022-10-05T18:38:19.037Z,14.15
2022-10-05T18:41:22.215Z,16.23
2022-10-05T18:44:17.412Z,12.07
2022-10-05T18:47:44.530Z,14.27
2022-10-05T18:50:43.415Z,13.55
2022-10-05T18:53:56.025Z,11.85
2022-10-05T18:56:47.953Z,12.73
2022-10-05T18:59:53.342Z,13.50
2022-10-05T19:02:44.171Z,14.15
2022-10-05T19:05:47.918Z,12.85
2022-10-05T19:08:41.740Z,15.60
2022-10-05T19:11:55.959Z,16.55
2022-10-05T19:15:18.383Z,12.68
2022-10-05T19:18:18.635Z,12.82
2022-10-05T19:21:12.795Z,11.82
2022-10-05T19:24:13.287Z,9.88
2022-10-05T19:27:16.313Z,13.38
2022-10-05T19:30:23.003Z,10.60
2022-10-05T19:33:30.739Z,10.90
2022-10-05T19:36:43.632Z,13.10
2022-10-05T19:39:49.753Z,13.98
2022-10-05T19:42:44.460Z,13.30
2022-10-05T19:45:36.059Z,9.95
2022-10-05T19:48:26.941Z,12.05
2022-10-05T19:51:28.737Z,11.65
2022-10-05T19:54:25.147Z,12.65
2022-10-05T19:57:18.811Z,10.85
2022-10-05T20:00:04.058Z,11.98
2022-10-05T20:02:50.227Z,12.18
2022-10-05T20:05:35.188Z,11.15
2022-10-05T20:08:22.085Z,11.50
2022-10-05T20:11:19.098Z,11.52
2022-10-05T20:14:05.658Z,13.45
2022-10-05T20:17:48.859Z,11.85
2022-10-05T20:20:33.633Z,10.77
2022-10-05T20:23:29.837Z,12.68
2022-10-05T20:27:00.243Z,9.95
2022-10-05T20:29:45.079Z,11.02
2022-10-05T20:32:30.928Z,11.27
2022-10-05T20:35:23.012Z,9.02
2022-10-05T20:38:07.799Z,10.57
2022-10-05T20:40:52.599Z,8.93
2022-10-05T20:43:38.633Z,9.88
2022-10-05T20:46:23.820Z,15.63
2022-10-05T20:49:12.742Z,12.07
2022-10-05T20:51:58.135Z,9.07
2022-10-05T20:54:43.354Z,7.22
2022-10-05T20:57:28.102Z,8.90
2022-10-05T21:00:13.478Z,12.40
2022-10-05T21:02:58.294Z,9.52
2022-10-05T21:05:43.514Z,9.68
2022-10-05T21:08:28.798Z,7.95
2022-10-05T21:11:14.150Z,11.52
2022-10-05T21:14:03.336Z,8.40
2022-10-05T21:16:51.792Z,10.20
2022-10-05T21:19:39.631Z,8.75
2022-10-05T21:22:24.478Z,6.60
2022-10-05T21:25:09.327Z,8.32
2022-10-05T21:27:54.454Z,12.57
2022-10-05T21:30:39.340Z,7.03
2022-10-05T21:33:24.555Z,8.85
2022-10-05T21:36:09.972Z,6.57
2022-10-05T21:38:54.993Z,5.88
2022-10-05T21:41:39.808Z,11.18
2022-10-05T21:44:24.689Z,7.22
2022-10-05T21:47:09.565Z,8.48
2022-10-05T21:49:54.723Z,8.25
2022-10-05T21:52:39.826Z,7.05
2022-10-05T21:55:24.874Z,7.13
2022-10-05T21:58:11.127Z,7.10
2022-10-05T22:00:56.331Z,6.53
2022-10-05T22:03:41.534Z,6.40
2022-10-05T22:06:26.844Z,6.93
2022-10-05T22:09:11.753Z,7.30
2022-10-05T22:11:56.916Z,6.18
2022-10-05T22:14:41.715Z,9.25
2022-10-05T22:17:31.128Z,6.45
2022-10-05T22:20:16.461Z,8.93
2022-10-05T22:23:01.312Z,6.88
2022-10-05T22:25:47.439Z,9.18
2022-10-05T22:28:33.603Z,9.60
2022-10-05T22:31:18.769Z,8.70
2022-10-05T22:34:03.625Z,10.32
2022-10-05T22:36:48.947Z,8.35
2022-10-05T22:39:33.412Z,9.57
2022-10-05T22:42:18.617Z,8.73
2022-10-05T22:45:04.689Z,12.25
2022-10-05T22:47:49.651Z,8.23
2022-10-05T22:50:34.822Z,8.77
2022-10-05T22:53:19.552Z,10.45
2022-10-05T22:56:11.748Z,9.20
2022-10-05T22:58:57.243Z,7.88
2022-10-05T23:01:42.336Z,8.70
2022-10-05T23:04:27.391Z,7.63
2022-10-05T23:07:12.252Z,7.32
2022-10-05T23:09:57.117Z,7.70
2022-10-05T23:12:42.659Z,7.25
2022-10-05T23:15:28.123Z,10.13
2022-10-05T23:18:16.112Z,7.22
2022-10-05T23:21:01.616Z,10.98
2022-10-05T23:23:48.447Z,8.50
2022-10-05T23:26:34.282Z,9.57
2022-10-05T23:29:19.141Z,7.28
2022-10-05T23:32:04.251Z,8.00
2022-10-05T23:34:48.992Z,8.43
2022-10-05T23:37:38.900Z,6.57
2022-10-05T23:40:23.779Z,7.50
2022-10-05T23:43:08.662Z,9.80
2022-10-05T23:45:54.261Z,7.15
2022-10-05T23:48:39.312Z,6.35
2022-10-05T23:51:24.068Z,9.75
2022-10-05T23:54:09.011Z,7.88
2022-10-05T23:56:53.881Z,7.28
2022-10-05T23:59:38.977Z,6.20
